createdAt,value
2018-07-28T00:00:53.942Z,0.00
2018-07-28T00:01:53.920Z,0.00
2018-07-28T00:02:53.929Z,0.00
2018-07-28T00:03:53.897Z,0.00
2018-07-28T00:04:53.910Z,0.00
2018-07-28T00:05:53.878Z,0.00
2018-07-28T00:06:53.894Z,0.00
2018-07-28T00:07:53.894Z,0.00
2018-07-28T00:08:53.843Z,0.00
2018-07-28T00:09:53.846Z,0.00
2018-07-28T00:10:53.827Z,0.00
2018-07-28T00:11:53.810Z,0.00
2018-07-28T00:12:53.833Z,0.00
2018-07-28T00:13:53.791Z,0.00
2018-07-28T00:14:53.781Z,0.00
2018-07-28T00:15:53.780Z,0.00
2018-07-28T00:16:53.757Z,0.00
2018-07-28T00:17:53.784Z,0.00
2018-07-28T00:18:53.732Z,0.00
2018-07-28T00:19:53.729Z,0.00
2018-07-28T00:20:53.712Z,0.00
2018-07-28T00:21:53.705Z,0.00
2018-07-28T00:22:53.712Z,0.00
2018-07-28T00:23:53.683Z,0.00
2018-07-28T00:24:53.670Z,0.00
2018-07-28T00:25:53.658Z,0.00
2018-07-28T00:26:53.642Z,0.00
2018-07-28T00:27:53.670Z,0.00
2018-07-28T00:28:53.629Z,0.00
2018-07-28T00:29:53.613Z,0.00
2018-07-28T00:30:53.603Z,0.00
2018-07-28T00:31:53.603Z,0.00
2018-07-28T00:32:53.608Z,0.00
2018-07-28T00:33:53.572Z,0.00
2018-07-28T00:34:53.556Z,0.00
2018-07-28T00:35:53.553Z,0.00
2018-07-28T00:36:53.542Z,0.00
2018-07-28T00:37:53.565Z,0.00
2018-07-28T00:38:53.520Z,0.00
2018-07-28T00:39:53.511Z,0.00
2018-07-28T00:40:53.446Z,0.00
2018-07-28T00:41:53.485Z,0.00
2018-07-28T00:42:53.478Z,0.00
2018-07-28T00:43:53.503Z,0.00
2018-07-28T00:44:53.451Z,0.00
2018-07-28T00:45:53.445Z,0.00
2018-07-28T00:46:53.435Z,0.00
2018-07-28T00:47:53.543Z,0.00
2018-07-28T00:48:53.432Z,0.00
2018-07-28T00:49:53.403Z,0.00
2018-07-28T00:50:53.393Z,0.00
2018-07-28T00:51:53.374Z,0.00
2018-07-28T00:52:53.371Z,0.00
2018-07-28T00:53:53.451Z,0.00
2018-07-28T00:54:53.347Z,0.00
2018-07-28T00:55:53.336Z,0.00
2018-07-28T00:56:53.281Z,0.00
2018-07-28T00:57:53.310Z,0.00
2018-07-28T00:58:53.326Z,0.00
2018-07-28T00:59:53.299Z,0.00
2018-07-28T01:00:53.281Z,0.00
2018-07-28T01:01:53.275Z,0.00
2018-07-28T01:02:53.261Z,0.00
2018-07-28T01:03:53.319Z,0.00
2018-07-28T01:04:53.232Z,0.00
2018-07-28T01:05:53.232Z,0.00
2018-07-28T01:06:53.219Z,0.00
2018-07-28T01:07:53.203Z,0.00
2018-07-28T01:08:53.175Z,0.00
2018-07-28T01:09:53.189Z,0.00
2018-07-28T01:10:53.171Z,0.00
2018-07-28T01:11:53.168Z,0.00
2018-07-28T01:12:53.148Z,0.00
2018-07-28T01:13:53.171Z,0.00
2018-07-28T01:14:53.137Z,0.00
2018-07-28T01:15:53.114Z,0.00
2018-07-28T01:16:53.113Z,0.00
2018-07-28T01:17:53.104Z,0.00
2018-07-28T01:18:53.127Z,0.00
2018-07-28T01:19:53.075Z,0.00
2018-07-28T01:20:53.075Z,0.00
2018-07-28T01:21:53.006Z,0.00
2018-07-28T01:22:53.044Z,0.00
2018-07-28T01:23:53.070Z,0.00
2018-07-28T01:24:53.026Z,0.00
2018-07-28T01:25:52.971Z,0.00
2018-07-28T01:26:52.961Z,0.00
2018-07-28T01:27:52.946Z,0.00
2018-07-28T01:28:53.011Z,0.00
2018-07-28T01:29:52.930Z,0.00
2018-07-28T01:30:52.959Z,0.00
2018-07-28T01:31:52.952Z,0.00
2018-07-28T01:32:52.943Z,0.00
2018-07-28T01:33:52.965Z,0.00
2018-07-28T01:34:52.914Z,0.00
2018-07-28T01:35:52.867Z,0.00
2018-07-28T01:36:52.894Z,0.00
2018-07-28T01:37:52.888Z,0.00
2018-07-28T01:38:52.904Z,0.00
2018-07-28T01:39:52.862Z,0.00
2018-07-28T01:40:52.848Z,0.00
2018-07-28T01:41:52.798Z,0.00
2018-07-28T01:42:52.788Z,0.00
2018-07-28T01:43:52.862Z,0.00
2018-07-28T01:44:52.808Z,0.00
2018-07-28T01:45:52.794Z,0.00
2018-07-28T01:46:52.742Z,0.00
2018-07-28T01:47:52.782Z,0.00
2018-07-28T01:48:52.793Z,0.00
2018-07-28T01:49:52.753Z,0.00
2018-07-28T01:50:52.743Z,0.00
2018-07-28T01:51:52.737Z,0.00
2018-07-28T01:52:52.776Z,0.00
2018-07-28T01:53:52.731Z,0.00
2018-07-28T01:54:52.702Z,0.00
2018-07-28T01:55:52.695Z,0.00
2018-07-28T01:56:52.634Z,0.00
2018-07-28T01:57:52.672Z,0.00
2018-07-28T01:58:52.683Z,0.00
2018-07-28T01:59:52.650Z,0.00
2018-07-28T02:00:52.637Z,0.00
2018-07-28T02:01:52.631Z,0.00
2018-07-28T02:02:52.576Z,0.00
2018-07-28T02:03:52.624Z,0.00
2018-07-28T02:04:52.604Z,0.00
2018-07-28T02:05:52.583Z,0.00
2018-07-28T02:06:52.587Z,0.00
2018-07-28T02:07:52.571Z,0.00
2018-07-28T02:08:52.586Z,0.00
2018-07-28T02:09:52.496Z,0.00
2018-07-28T02:10:52.537Z,0.00
2018-07-28T02:11:52.470Z,0.00
2018-07-28T02:12:52.514Z,0.00
2018-07-28T02:13:52.532Z,0.00
2018-07-28T02:14:52.488Z,0.00
2018-07-28T02:15:52.476Z,0.00
2018-07-28T02:16:52.474Z,0.00
2018-07-28T02:17:52.454Z,0.00
2018-07-28T02:18:52.473Z,0.00
2018-07-28T02:19:52.435Z,0.00
2018-07-28T02:20:52.422Z,0.00
2018-07-28T02:21:52.425Z,0.00
2018-07-28T02:22:52.402Z,0.00
2018-07-28T02:23:52.417Z,0.00
2018-07-28T02:24:52.381Z,0.00
2018-07-28T02:25:52.368Z,0.00
2018-07-28T02:26:52.358Z,0.00
2018-07-28T02:27:52.355Z,0.00
2018-07-28T02:28:52.408Z,0.00
2018-07-28T02:29:52.326Z,0.00
2018-07-28T02:30:52.323Z,0.00
2018-07-28T02:31:52.311Z,0.00
2018-07-28T02:32:52.301Z,0.00
2018-07-28T02:33:52.317Z,0.00
2018-07-28T02:34:52.342Z,0.00
2018-07-28T02:35:52.264Z,0.00
2018-07-28T02:36:52.253Z,0.00
2018-07-28T02:37:52.243Z,0.00
2018-07-28T02:38:52.252Z,0.00
2018-07-28T02:39:52.183Z,0.00
2018-07-28T02:40:52.210Z,0.00
2018-07-28T02:41:52.202Z,0.00
2018-07-28T02:42:52.192Z,0.00
2018-07-28T02:43:52.215Z,0.00
2018-07-28T02:44:52.179Z,0.00
2018-07-28T02:45:52.109Z,0.00
2018-07-28T02:46:52.141Z,0.00
2018-07-28T02:47:52.137Z,0.00
2018-07-28T02:48:52.150Z,0.00
2018-07-28T02:49:52.069Z,0.00
2018-07-28T02:50:52.112Z,0.00
2018-07-28T02:51:52.105Z,0.00
2018-07-28T02:52:52.083Z,0.00
2018-07-28T02:53:52.099Z,0.00
2018-07-28T02:54:52.060Z,0.00
2018-07-28T02:55:52.054Z,0.00
2018-07-28T02:56:52.050Z,0.00
2018-07-28T02:57:51.986Z,0.00
2018-07-28T02:58:52.051Z,0.00
2018-07-28T02:59:52.017Z,0.00
2018-07-28T03:00:51.996Z,0.00
2018-07-28T03:01:51.993Z,0.00
2018-07-28T03:02:51.980Z,0.00
2018-07-28T03:03:51.987Z,0.00
2018-07-28T03:04:51.957Z,0.00
2018-07-28T03:05:51.941Z,0.00
2018-07-28T03:06:51.932Z,4.00
2018-07-28T03:07:51.919Z,4.00
2018-07-28T03:08:51.942Z,0.00
2018-07-28T03:09:51.906Z,0.00
2018-07-28T03:10:51.897Z,4.00
2018-07-28T03:11:51.884Z,4.00
2018-07-28T03:12:51.873Z,0.00
2018-07-28T03:13:51.881Z,4.00
2018-07-28T03:14:51.848Z,4.00
2018-07-28T03:15:51.841Z,4.00
2018-07-28T03:16:51.828Z,8.00
2018-07-28T03:17:51.767Z,8.00
2018-07-28T03:18:51.834Z,8.00
2018-07-28T03:19:51.790Z,8.00
2018-07-28T03:20:51.781Z,8.00
2018-07-28T03:21:51.784Z,12.00
2018-07-28T03:22:51.761Z,12.00
2018-07-28T03:23:51.729Z,16.00
2018-07-28T03:24:51.752Z,16.00
2018-07-28T03:25:51.732Z,16.00
2018-07-28T03:26:51.722Z,20.00
2018-07-28T03:27:51.718Z,24.00
2018-07-28T03:28:51.723Z,32.00
2018-07-28T03:29:51.687Z,32.00
2018-07-28T03:30:51.693Z,36.00
2018-07-28T03:31:51.665Z,44.00
2018-07-28T03:32:51.668Z,48.00
2018-07-28T03:33:51.677Z,52.00
2018-07-28T03:34:51.630Z,60.00
2018-07-28T03:35:51.620Z,72.00
2018-07-28T03:36:51.576Z,80.00
2018-07-28T03:37:51.604Z,88.00
2018-07-28T03:38:51.608Z,100.00
2018-07-28T03:39:51.627Z,108.00
2018-07-28T03:40:51.576Z,124.00
2018-07-28T03:41:51.556Z,136.00
2018-07-28T03:42:51.504Z,148.00
2018-07-28T03:43:51.537Z,164.00
2018-07-28T03:44:51.546Z,180.00
2018-07-28T03:45:51.515Z,200.00
2018-07-28T03:46:51.502Z,220.00
2018-07-28T03:47:51.496Z,236.00
2018-07-28T03:48:51.438Z,260.00
2018-07-28T03:49:51.455Z,280.00
2018-07-28T03:50:51.460Z,304.00
2018-07-28T03:51:51.454Z,328.00
2018-07-28T03:52:51.461Z,356.00
2018-07-28T03:53:51.429Z,380.00
2018-07-28T03:54:51.476Z,408.00
2018-07-28T03:55:51.419Z,440.00
2018-07-28T03:56:51.398Z,468.00
2018-07-28T03:57:51.397Z,504.00
2018-07-28T03:58:51.393Z,544.00
2018-07-28T03:59:51.390Z,580.00
2018-07-28T04:00:51.355Z,620.00
2018-07-28T04:01:51.353Z,668.00
2018-07-28T04:02:51.336Z,716.00
2018-07-28T04:03:51.323Z,768.00
2018-07-28T04:04:51.336Z,824.00
2018-07-28T04:05:51.303Z,884.00
2018-07-28T04:06:51.284Z,944.00
2018-07-28T04:07:51.278Z,1008.00
2018-07-28T04:08:51.269Z,1072.00
2018-07-28T04:09:51.284Z,1140.00
2018-07-28T04:10:51.248Z,1212.00
2018-07-28T04:11:51.236Z,1284.00
2018-07-28T04:12:51.224Z,1352.00
2018-07-28T04:13:51.221Z,1432.00
2018-07-28T04:14:51.224Z,1508.00
2018-07-28T04:15:51.151Z,1588.00
2018-07-28T04:16:51.202Z,1672.00
2018-07-28T04:17:51.170Z,1760.00
2018-07-28T04:18:51.157Z,1852.00
2018-07-28T04:19:51.173Z,1952.00
2018-07-28T04:20:51.139Z,2060.00
2018-07-28T04:21:51.122Z,2184.00
2018-07-28T04:22:51.125Z,2308.00
2018-07-28T04:23:51.105Z,2452.00
2018-07-28T04:24:51.120Z,2596.00
2018-07-28T04:25:51.087Z,2752.00
2018-07-28T04:26:51.075Z,2916.00
2018-07-28T04:27:51.071Z,3104.00
2018-07-28T04:28:51.066Z,3316.00
2018-07-28T04:29:51.078Z,3572.00
2018-07-28T04:30:51.030Z,3852.00
2018-07-28T04:31:51.021Z,4220.00
2018-07-28T04:32:51.018Z,4488.00
2018-07-28T04:33:51.008Z,4708.00
2018-07-28T04:34:51.027Z,4940.00
2018-07-28T04:35:50.988Z,5244.00
2018-07-28T04:36:50.972Z,5624.00
2018-07-28T04:37:50.953Z,6036.00
2018-07-28T04:38:50.945Z,6352.00
2018-07-28T04:39:50.962Z,6576.00
2018-07-28T04:40:50.921Z,6692.00
2018-07-28T04:41:50.917Z,6760.00
2018-07-28T04:42:50.899Z,6904.00
2018-07-28T04:43:50.917Z,8064.00
2018-07-28T04:44:50.918Z,8144.00
2018-07-28T04:45:50.830Z,7176.00
2018-07-28T04:46:50.862Z,7108.00
2018-07-28T04:47:50.864Z,7036.00
2018-07-28T04:48:50.860Z,7512.00
2018-07-28T04:49:50.865Z,7816.00
2018-07-28T04:50:50.833Z,7420.00
2018-07-28T04:51:50.836Z,7196.00
2018-07-28T04:52:50.840Z,7256.00
2018-07-28T04:53:50.779Z,6928.00
2018-07-28T04:54:50.783Z,6872.00
2018-07-28T04:55:50.772Z,6872.00
2018-07-28T04:56:50.763Z,6932.00
2018-07-28T04:57:50.750Z,6632.00
2018-07-28T04:58:50.735Z,6320.00
2018-07-28T04:59:50.757Z,6024.00
2018-07-28T05:00:50.712Z,5712.00
2018-07-28T05:01:50.705Z,5460.00
2018-07-28T05:02:50.683Z,5236.00
2018-07-28T05:03:50.677Z,5032.00
2018-07-28T05:04:50.688Z,4888.00
2018-07-28T05:05:50.658Z,4824.00
2018-07-28T05:06:50.652Z,4756.00
2018-07-28T05:07:50.633Z,4600.00
2018-07-28T05:08:50.630Z,4376.00
2018-07-28T05:09:50.639Z,4156.00
2018-07-28T05:10:50.608Z,4064.00
2018-07-28T05:11:50.607Z,4008.00
2018-07-28T05:12:50.601Z,3972.00
2018-07-28T05:13:50.566Z,3940.00
2018-07-28T05:14:50.591Z,3860.00
2018-07-28T05:15:50.558Z,3732.00
2018-07-28T05:16:50.531Z,3620.00
2018-07-28T05:17:50.543Z,3520.00
2018-07-28T05:18:50.515Z,3396.00
2018-07-28T05:19:50.525Z,3240.00
2018-07-28T05:20:50.486Z,3080.00
2018-07-28T05:21:50.483Z,2924.00
2018-07-28T05:22:50.475Z,2804.00
2018-07-28T05:23:50.443Z,2716.00
2018-07-28T05:24:50.478Z,2684.00
2018-07-28T05:25:50.447Z,2724.00
2018-07-28T05:26:50.428Z,2724.00
2018-07-28T05:27:50.421Z,2620.00
2018-07-28T05:28:50.408Z,2492.00
2018-07-28T05:29:50.376Z,2356.00
2018-07-28T05:30:50.383Z,2260.00
2018-07-28T05:31:50.366Z,2228.00
2018-07-28T05:32:50.360Z,2280.00
2018-07-28T05:33:50.354Z,2388.00
2018-07-28T05:34:50.389Z,2544.00
2018-07-28T05:35:50.328Z,2788.00
2018-07-28T05:36:50.312Z,2880.00
2018-07-28T05:37:50.306Z,2696.00
2018-07-28T05:38:50.303Z,2464.00
2018-07-28T05:39:50.313Z,2176.00
2018-07-28T05:40:50.232Z,2008.00
2018-07-28T05:41:50.270Z,1996.00
2018-07-28T05:42:50.279Z,2156.00
2018-07-28T05:43:50.241Z,2380.00
2018-07-28T05:44:50.358Z,2548.00
2018-07-28T05:45:50.219Z,2676.00
2018-07-28T05:46:50.218Z,2672.00
2018-07-28T05:47:50.196Z,2584.00
2018-07-28T05:48:50.187Z,2572.00
2018-07-28T05:49:50.203Z,2632.00
2018-07-28T05:50:50.196Z,2716.00
2018-07-28T05:51:50.165Z,2820.00
2018-07-28T05:52:50.144Z,2936.00
2018-07-28T05:53:50.132Z,3000.00
2018-07-28T05:54:50.190Z,2968.00
2018-07-28T05:55:50.107Z,2848.00
2018-07-28T05:56:50.123Z,2732.00
2018-07-28T05:57:50.091Z,2568.00
2018-07-28T05:58:50.033Z,2484.00
2018-07-28T05:59:50.097Z,2524.00
2018-07-28T06:00:50.068Z,2628.00
2018-07-28T06:01:50.059Z,2792.00
2018-07-28T06:02:50.072Z,2904.00
2018-07-28T06:03:50.020Z,3020.00
2018-07-28T06:04:50.047Z,3236.00
2018-07-28T06:05:50.001Z,3424.00
2018-07-28T06:06:49.991Z,3532.00
2018-07-28T06:07:49.994Z,3596.00
2018-07-28T06:08:49.966Z,3784.00
2018-07-28T06:09:49.991Z,4184.00
2018-07-28T06:10:49.994Z,4880.00
2018-07-28T06:11:49.935Z,5928.00
2018-07-28T06:12:49.899Z,7164.00
2018-07-28T06:13:49.911Z,8116.00
2018-07-28T06:14:49.930Z,8472.00
2018-07-28T06:15:49.892Z,8720.00
2018-07-28T06:16:49.882Z,8984.00
2018-07-28T06:17:49.879Z,9248.00
2018-07-28T06:18:49.860Z,9160.00
2018-07-28T06:19:49.879Z,8860.00
2018-07-28T06:20:57.407Z,8596.00
2018-07-28T06:21:49.833Z,8176.00
2018-07-28T06:22:49.812Z,7480.00
2018-07-28T06:23:49.807Z,7048.00
2018-07-28T06:24:49.797Z,5860.00
2018-07-28T06:25:49.819Z,4772.00
2018-07-28T06:26:49.773Z,3912.00
2018-07-28T06:27:49.766Z,3268.00
2018-07-28T06:28:49.751Z,2848.00
2018-07-28T06:29:49.803Z,2556.00
2018-07-28T06:30:49.728Z,2424.00
2018-07-28T06:31:49.820Z,2444.00
2018-07-28T06:32:49.722Z,2588.00
2018-07-28T06:33:49.709Z,2884.00
2018-07-28T06:34:49.703Z,3232.00
2018-07-28T06:35:49.716Z,3588.00
2018-07-28T06:36:49.668Z,4032.00
2018-07-28T06:37:49.619Z,4640.00
2018-07-28T06:38:49.641Z,5368.00
2018-07-28T06:39:49.628Z,6188.00
2018-07-28T06:40:49.666Z,7084.00
2018-07-28T06:41:49.570Z,7840.00
2018-07-28T06:42:49.608Z,8172.00
2018-07-28T06:43:49.612Z,8472.00
2018-07-28T06:44:49.582Z,8644.00
2018-07-28T06:45:49.599Z,8528.00
2018-07-28T06:46:49.568Z,9428.00
2018-07-28T06:47:49.600Z,9068.00
2018-07-28T06:48:49.539Z,8724.00
2018-07-28T06:49:49.533Z,10600.00
2018-07-28T06:50:49.545Z,18272.00
2018-07-28T06:51:49.500Z,24960.00
2018-07-28T06:52:49.497Z,31232.00
2018-07-28T06:53:49.587Z,18656.00
2018-07-28T06:54:49.470Z,9908.00
2018-07-28T06:55:49.542Z,9056.00
2018-07-28T06:56:49.452Z,8968.00
2018-07-28T06:57:49.436Z,7876.00
2018-07-28T06:58:49.432Z,7620.00
2018-07-28T06:59:49.432Z,7884.00
2018-07-28T07:00:49.436Z,8268.00
2018-07-28T07:01:49.397Z,8944.00
2018-07-28T07:02:49.390Z,9352.00
2018-07-28T07:03:49.408Z,9988.00
2018-07-28T07:04:50.383Z,10844.00
2018-07-28T07:05:49.384Z,11992.00
2018-07-28T07:06:49.349Z,13136.00
2018-07-28T07:07:49.333Z,14120.00
2018-07-28T07:08:49.346Z,14684.00
2018-07-28T07:09:49.313Z,14576.00
2018-07-28T07:10:49.346Z,14400.00
2018-07-28T07:11:49.294Z,14460.00
2018-07-28T07:12:49.295Z,14472.00
2018-07-28T07:13:49.310Z,14192.00
2018-07-28T07:14:49.268Z,14228.00
2018-07-28T07:15:49.225Z,14752.00
2018-07-28T07:16:49.240Z,15480.00
2018-07-28T07:17:49.230Z,16400.00
2018-07-28T07:18:49.211Z,16672.00
2018-07-28T07:19:49.211Z,17984.00
2018-07-28T07:20:49.224Z,22304.00
2018-07-28T07:21:49.186Z,22272.00
2018-07-28T07:22:49.802Z,27296.00
2018-07-28T07:23:49.173Z,24064.00
2018-07-28T07:24:49.207Z,22528.00
2018-07-28T07:25:49.176Z,19584.00
2018-07-28T07:26:49.087Z,17120.00
2018-07-28T07:27:49.118Z,17280.00
2018-07-28T07:28:49.121Z,15240.00
2018-07-28T07:29:49.102Z,14680.00
2018-07-28T07:30:49.314Z,14380.00
2018-07-28T07:31:49.103Z,14152.00
2018-07-28T07:32:49.074Z,14068.00
2018-07-28T07:33:49.063Z,13604.00
2018-07-28T07:34:49.066Z,13032.00
2018-07-28T07:35:49.068Z,12400.00
2018-07-28T07:36:49.065Z,11696.00
2018-07-28T07:37:49.019Z,11052.00
2018-07-28T07:38:49.018Z,10388.00
2018-07-28T07:39:49.010Z,9692.00
2018-07-28T07:40:49.180Z,9088.00
2018-07-28T07:41:49.081Z,8568.00
2018-07-28T07:42:48.978Z,8072.00
2018-07-28T07:43:48.955Z,7532.00
2018-07-28T07:44:48.956Z,6996.00
2018-07-28T07:45:48.965Z,6536.00
2018-07-28T07:46:48.945Z,6144.00
2018-07-28T07:47:48.911Z,5764.00
2018-07-28T07:48:48.904Z,5364.00
2018-07-28T07:49:48.895Z,4984.00
2018-07-28T07:50:48.914Z,4632.00
2018-07-28T07:51:48.877Z,4312.00
2018-07-28T07:52:48.868Z,4024.00
2018-07-28T07:53:48.914Z,3844.00
2018-07-28T07:54:48.839Z,3764.00
2018-07-28T07:55:48.854Z,3912.00
2018-07-28T07:56:48.845Z,4296.00
2018-07-28T07:57:48.811Z,4728.00
2018-07-28T07:58:48.805Z,5196.00
2018-07-28T07:59:48.796Z,5672.00
2018-07-28T08:00:48.806Z,6192.00
2018-07-28T08:01:48.765Z,6512.00
2018-07-28T08:02:48.757Z,6752.00
2018-07-28T08:03:48.743Z,7200.00
2018-07-28T08:04:48.746Z,7780.00
2018-07-28T08:05:48.752Z,8204.00
2018-07-28T08:06:48.733Z,8704.00
2018-07-28T08:07:48.660Z,9180.00
2018-07-28T08:08:48.694Z,9444.00
2018-07-28T08:09:48.694Z,9588.00
2018-07-28T08:10:48.694Z,9840.00
2018-07-28T08:11:48.663Z,10380.00
2018-07-28T08:12:48.676Z,11148.00
2018-07-28T08:13:48.632Z,12040.00
2018-07-28T08:14:48.674Z,12820.00
2018-07-28T08:15:48.650Z,13552.00
2018-07-28T08:16:48.602Z,13476.00
2018-07-28T08:17:48.603Z,13004.00
2018-07-28T08:18:48.596Z,12412.00
2018-07-28T08:19:48.574Z,11560.00
2018-07-28T08:20:48.599Z,11000.00
2018-07-28T08:21:48.554Z,10640.00
2018-07-28T08:22:48.500Z,10348.00
2018-07-28T08:23:48.529Z,10232.00
2018-07-28T08:24:48.522Z,10436.00
2018-07-28T08:25:48.548Z,10892.00
2018-07-28T08:26:48.548Z,11688.00
2018-07-28T08:27:48.494Z,12256.00
2018-07-28T08:28:48.487Z,12596.00
2018-07-28T08:29:48.425Z,12696.00
2018-07-28T08:30:48.487Z,12560.00
2018-07-28T08:31:48.481Z,12256.00
2018-07-28T08:32:48.442Z,11520.00
2018-07-28T08:33:48.513Z,10772.00
2018-07-28T08:34:48.421Z,10592.00
2018-07-28T08:35:48.394Z,10688.00
2018-07-28T08:36:48.390Z,11028.00
2018-07-28T08:37:48.469Z,11444.00
2018-07-28T08:38:48.375Z,11316.00
2018-07-28T08:39:48.380Z,11040.00
2018-07-28T08:40:48.387Z,10224.00
2018-07-28T08:41:48.339Z,9348.00
2018-07-28T08:42:48.355Z,8740.00
2018-07-28T08:43:48.336Z,8504.00
2018-07-28T08:44:48.329Z,8360.00
2018-07-28T08:45:48.365Z,8260.00
2018-07-28T08:46:48.292Z,8236.00
2018-07-28T08:47:48.284Z,8456.00
2018-07-28T08:48:48.308Z,8756.00
2018-07-28T08:49:48.264Z,9268.00
2018-07-28T08:50:48.276Z,9928.00
2018-07-28T08:51:48.235Z,10720.00
2018-07-28T08:52:48.222Z,11560.00
2018-07-28T08:53:48.219Z,13000.00
2018-07-28T08:54:48.294Z,14008.00
2018-07-28T08:55:48.219Z,14880.00
2018-07-28T08:56:48.206Z,15936.00
2018-07-28T08:57:48.180Z,17632.00
2018-07-28T08:58:48.161Z,18784.00
2018-07-28T08:59:48.111Z,19712.00
2018-07-28T09:00:48.177Z,20768.00
2018-07-28T09:01:48.129Z,22048.00
2018-07-28T09:02:48.139Z,22176.00
2018-07-28T09:03:48.113Z,22880.00
2018-07-28T09:04:48.097Z,23296.00
2018-07-28T09:05:48.140Z,24352.00
2018-07-28T09:06:48.074Z,24256.00
2018-07-28T09:07:48.061Z,23200.00
2018-07-28T09:08:48.091Z,22240.00
2018-07-28T09:09:48.068Z,22016.00
2018-07-28T09:10:48.039Z,22624.00
2018-07-28T09:11:48.078Z,20928.00
2018-07-28T09:12:48.011Z,19328.00
2018-07-28T09:13:48.010Z,19584.00
2018-07-28T09:14:47.994Z,19840.00
2018-07-28T09:15:48.010Z,20224.00
2018-07-28T09:16:48.000Z,20448.00
2018-07-28T09:17:48.014Z,21152.00
2018-07-28T09:18:47.952Z,21344.00
2018-07-28T09:19:47.946Z,22208.00
2018-07-28T09:20:47.962Z,22464.00
2018-07-28T09:21:47.950Z,21984.00
2018-07-28T09:22:48.033Z,21504.00
2018-07-28T09:23:47.930Z,20224.00
2018-07-28T09:24:47.899Z,18496.00
2018-07-28T09:25:47.883Z,17728.00
2018-07-28T09:26:47.991Z,17920.00
2018-07-28T09:27:47.885Z,17984.00
2018-07-28T09:28:47.849Z,18464.00
2018-07-28T09:29:47.832Z,18272.00
2018-07-28T09:30:47.823Z,18240.00
2018-07-28T09:31:47.849Z,17228.00
2018-07-28T09:32:47.849Z,16292.00
2018-07-28T09:33:47.806Z,15864.00
2018-07-28T09:34:47.749Z,15824.00
2018-07-28T09:35:47.775Z,16620.00
2018-07-28T09:36:47.861Z,17600.00
2018-07-28T09:37:47.794Z,18208.00
2018-07-28T09:38:47.753Z,18496.00
2018-07-28T09:39:47.739Z,18976.00
2018-07-28T09:40:47.731Z,19712.00
2018-07-28T09:41:47.740Z,19904.00
2018-07-28T09:42:47.657Z,20064.00
2018-07-28T09:43:47.698Z,20288.00
2018-07-28T09:44:47.685Z,20288.00
2018-07-28T09:45:47.692Z,20544.00
2018-07-28T09:46:47.686Z,21024.00
2018-07-28T09:47:47.654Z,21472.00
2018-07-28T09:48:47.644Z,22336.00
2018-07-28T09:49:47.663Z,21728.00
2018-07-28T09:50:47.621Z,21120.00
2018-07-28T09:51:47.641Z,20928.00
2018-07-28T09:52:47.597Z,21152.00
2018-07-28T09:53:48.311Z,22208.00
2018-07-28T09:54:47.579Z,22848.00
2018-07-28T09:55:47.583Z,23584.00
2018-07-28T09:56:47.538Z,23808.00
2018-07-28T09:57:47.551Z,23296.00
2018-07-28T09:58:47.538Z,21792.00
2018-07-28T09:59:47.544Z,20064.00
2018-07-28T10:00:47.522Z,19232.00
2018-07-28T10:01:47.544Z,18784.00
2018-07-28T10:02:47.497Z,18112.00
2018-07-28T10:03:47.538Z,17792.00
2018-07-28T10:04:47.480Z,17760.00
2018-07-28T10:05:47.471Z,18112.00
2018-07-28T10:06:47.519Z,18464.00
2018-07-28T10:07:47.474Z,18304.00
2018-07-28T10:08:47.442Z,18368.00
2018-07-28T10:09:47.427Z,18656.00
2018-07-28T10:10:47.413Z,18688.00
2018-07-28T10:11:47.435Z,18464.00
2018-07-28T10:12:47.397Z,18240.00
2018-07-28T10:13:47.394Z,17888.00
2018-07-28T10:14:47.375Z,17792.00
2018-07-28T10:15:47.435Z,17984.00
2018-07-28T10:16:47.406Z,18400.00
2018-07-28T10:17:47.345Z,18848.00
2018-07-28T10:18:47.333Z,19040.00
2018-07-28T10:19:47.448Z,19232.00
2018-07-28T10:20:47.326Z,19776.00
2018-07-28T10:21:47.346Z,20128.00
2018-07-28T10:22:47.247Z,20576.00
2018-07-28T10:23:47.282Z,21120.00
2018-07-28T10:24:47.359Z,21472.00
2018-07-28T10:25:47.324Z,21568.00
2018-07-28T10:26:47.330Z,21568.00
2018-07-28T10:27:47.246Z,21664.00
2018-07-28T10:28:47.233Z,21664.00
2018-07-28T10:29:47.184Z,21568.00
2018-07-28T10:30:47.166Z,21216.00
2018-07-28T10:31:47.283Z,20256.00
2018-07-28T10:32:47.191Z,18976.00
2018-07-28T10:33:47.185Z,18592.00
2018-07-28T10:34:47.195Z,19200.00
2018-07-28T10:35:47.182Z,19520.00
2018-07-28T10:36:47.268Z,19296.00
2018-07-28T10:37:47.160Z,18848.00
2018-07-28T10:38:47.131Z,17728.00
2018-07-28T10:39:47.118Z,17312.00
2018-07-28T10:40:47.115Z,16832.00
2018-07-28T10:41:47.137Z,15636.00
2018-07-28T10:42:47.092Z,14684.00
2018-07-28T10:43:47.033Z,14492.00
2018-07-28T10:44:47.068Z,13396.00
2018-07-28T10:45:47.072Z,11840.00
2018-07-28T10:46:47.072Z,11364.00
2018-07-28T10:47:47.039Z,11720.00
2018-07-28T10:48:47.027Z,12440.00
2018-07-28T10:49:47.014Z,12112.00
2018-07-28T10:50:47.004Z,11444.00
2018-07-28T10:51:47.054Z,11196.00
2018-07-28T10:52:47.002Z,11008.00
2018-07-28T10:53:46.972Z,11152.00
2018-07-28T10:54:46.966Z,11264.00
2018-07-28T10:55:46.906Z,11204.00
2018-07-28T10:56:46.950Z,11268.00
2018-07-28T10:57:46.959Z,12372.00
2018-07-28T10:58:46.924Z,12968.00
2018-07-28T10:59:46.907Z,13740.00
2018-07-28T11:00:46.895Z,13872.00
2018-07-28T11:01:46.896Z,15504.00
2018-07-28T11:02:46.860Z,16568.00
2018-07-28T11:03:46.877Z,14512.00
2018-07-28T11:04:46.854Z,12884.00
2018-07-28T11:05:46.851Z,12260.00
2018-07-28T11:06:46.839Z,12324.00
2018-07-28T11:07:46.854Z,13412.00
2018-07-28T11:08:46.816Z,13236.00
2018-07-28T11:09:46.813Z,12336.00
2018-07-28T11:10:46.806Z,11020.00
2018-07-28T11:11:46.784Z,9932.00
2018-07-28T11:12:46.764Z,9240.00
2018-07-28T11:13:46.780Z,8892.00
2018-07-28T11:14:46.768Z,7972.00
2018-07-28T11:15:46.745Z,7188.00
2018-07-28T11:16:46.737Z,6692.00
2018-07-28T11:17:46.715Z,6076.00
2018-07-28T11:18:46.813Z,5432.00
2018-07-28T11:19:46.710Z,4960.00
2018-07-28T11:20:46.649Z,4700.00
2018-07-28T11:21:46.695Z,4496.00
2018-07-28T11:22:46.788Z,4448.00
2018-07-28T11:23:46.662Z,4572.00
2018-07-28T11:24:46.739Z,4736.00
2018-07-28T11:25:46.643Z,4784.00
2018-07-28T11:26:46.627Z,4844.00
2018-07-28T11:27:46.653Z,5040.00
2018-07-28T11:28:46.635Z,5252.00
2018-07-28T11:29:46.596Z,5344.00
2018-07-28T11:30:46.589Z,5504.00
2018-07-28T11:31:46.662Z,5768.00
2018-07-28T11:32:46.599Z,5940.00
2018-07-28T11:33:46.557Z,6160.00
2018-07-28T11:34:46.541Z,6620.00
2018-07-28T11:35:46.545Z,7152.00
2018-07-28T11:36:46.532Z,7504.00
2018-07-28T11:37:46.595Z,7612.00
2018-07-28T11:38:46.513Z,7604.00
2018-07-28T11:39:46.494Z,7980.00
2018-07-28T11:40:46.480Z,8620.00
2018-07-28T11:41:46.475Z,9112.00
2018-07-28T11:42:46.487Z,9416.00
2018-07-28T11:43:46.450Z,9580.00
2018-07-28T11:44:46.443Z,9588.00
2018-07-28T11:45:46.475Z,9528.00
2018-07-28T11:46:46.389Z,9464.00
2018-07-28T11:47:46.441Z,9508.00
2018-07-28T11:48:46.401Z,10108.00
2018-07-28T11:49:46.402Z,10912.00
2018-07-28T11:50:46.382Z,11832.00
2018-07-28T11:51:46.366Z,13052.00
2018-07-28T11:52:46.392Z,14220.00
2018-07-28T11:53:46.347Z,15304.00
2018-07-28T11:54:46.334Z,16328.00
2018-07-28T11:55:46.337Z,16640.00
2018-07-28T11:56:46.315Z,16452.00
2018-07-28T11:57:46.359Z,15984.00
2018-07-28T11:58:46.289Z,15396.00
2018-07-28T11:59:46.283Z,14760.00
2018-07-28T12:00:46.280Z,14012.00
2018-07-28T12:01:46.300Z,13308.00
2018-07-28T12:02:46.283Z,13068.00
2018-07-28T12:03:46.239Z,13068.00
2018-07-28T12:04:46.229Z,12744.00
2018-07-28T12:05:46.189Z,12380.00
2018-07-28T12:06:46.214Z,12064.00
2018-07-28T12:07:46.226Z,11480.00
2018-07-28T12:08:46.194Z,11264.00
2018-07-28T12:09:46.200Z,11048.00
2018-07-28T12:10:46.169Z,10860.00
2018-07-28T12:11:46.212Z,10984.00
2018-07-28T12:12:46.175Z,10788.00
2018-07-28T12:13:46.162Z,10264.00
2018-07-28T12:14:46.120Z,10256.00
2018-07-28T12:15:46.123Z,10240.00
2018-07-28T12:16:46.058Z,9520.00
2018-07-28T12:17:46.116Z,8976.00
2018-07-28T12:18:46.105Z,8676.00